sensor_id;sensor_type;location;lat;lon;timestamp;temperature;humidity
52275;DHT22;38228;50.940;4.024;2023-04-25T00:02:21;9.60;99.90
52275;DHT22;38228;50.940;4.024;2023-04-25T00:04:47;9.30;99.90
52275;DHT22;38228;50.940;4.024;2023-04-25T00:07:14;9.30;99.90
52275;DHT22;38228;50.940;4.024;2023-04-25T00:09:40;9.30;99.90
52275;DHT22;38228;50.940;4.024;2023-04-25T00:12:06;9.40;99.90
52275;DHT22;38228;50.940;4.024;2023-04-25T00:14:32;9.30;99.90
52275;DHT22;38228;50.940;4.024;2023-04-25T00:17:01;8.90;99.90
52275;DHT22;38228;50.940;4.024;2023-04-25T00:19:28;9.00;99.90
52275;DHT22;38228;50.940;4.024;2023-04-25T00:21:56;9.00;99.90
52275;DHT22;38228;50.940;4.024;2023-04-25T00:24:22;9.00;99.90
52275;DHT22;38228;50.940;4.024;2023-04-25T00:26:48;8.80;99.90
52275;DHT22;38228;50.940;4.024;2023-04-25T00:29:14;8.90;99.90
52275;DHT22;38228;50.940;4.024;2023-04-25T00:31:40;8.80;99.90
52275;DHT22;38228;50.940;4.024;2023-04-25T00:34:06;9.10;99.90
52275;DHT22;38228;50.940;4.024;2023-04-25T00:36:33;9.20;99.90
52275;DHT22;38228;50.940;4.024;2023-04-25T00:38:59;9.10;99.90
52275;DHT22;38228;50.940;4.024;2023-04-25T00:41:25;9.10;99.90
52275;DHT22;38228;50.940;4.024;2023-04-25T00:43:52;8.90;99.90
52275;DHT22;38228;50.940;4.024;2023-04-25T00:46:19;9.00;99.90
52275;DHT22;38228;50.940;4.024;2023-04-25T00:48:45;9.00;99.90
52275;DHT22;38228;50.940;4.024;2023-04-25T00:51:14;9.10;99.90
52275;DHT22;38228;50.940;4.024;2023-04-25T00:53:41;8.90;99.90
52275;DHT22;38228;50.940;4.024;2023-04-25T00:56:07;8.80;99.90
52275;DHT22;38228;50.940;4.024;2023-04-25T00:58:33;8.90;99.90
52275;DHT22;38228;50.940;4.024;2023-04-25T01:01:01;9.00;99.90
52275;DHT22;38228;50.940;4.024;2023-04-25T01:03:28;9.10;99.90
52275;DHT22;38228;50.940;4.024;2023-04-25T01:05:55;9.00;99.90
52275;DHT22;38228;50.940;4.024;2023-04-25T01:08:24;8.80;99.90
52275;DHT22;38228;50.940;4.024;2023-04-25T01:10:52;8.90;99.90
52275;DHT22;38228;50.940;4.024;2023-04-25T01:13:18;8.90;99.90
52275;DHT22;38228;50.940;4.024;2023-04-25T01:15:43;8.80;99.90
52275;DHT22;38228;50.940;4.024;2023-04-25T01:18:09;9.10;99.90
52275;DHT22;38228;50.940;4.024;2023-04-25T01:20:37;9.20;99.90
52275;DHT22;38228;50.940;4.024;2023-04-25T01:23:04;9.00;99.90
52275;DHT22;38228;50.940;4.024;2023-04-25T01:25:30;8.80;99.90
52275;DHT22;38228;50.940;4.024;2023-04-25T01:27:58;8.70;99.90
52275;DHT22;38228;50.940;4.024;2023-04-25T01:30:26;8.60;99.90
52275;DHT22;38228;50.940;4.024;2023-04-25T01:32:54;8.60;99.90
52275;DHT22;38228;50.940;4.024;2023-04-25T01:35:20;8.50;99.90
52275;DHT22;38228;50.940;4.024;2023-04-25T01:37:46;8.60;99.90
52275;DHT22;38228;50.940;4.024;2023-04-25T01:40:12;8.80;99.90
52275;DHT22;38228;50.940;4.024;2023-04-25T01:42:42;8.70;99.90
52275;DHT22;38228;50.940;4.024;2023-04-25T01:45:09;8.60;99.90
52275;DHT22;38228;50.940;4.024;2023-04-25T01:47:36;8.60;99.90
52275;DHT22;38228;50.940;4.024;2023-04-25T01:50:04;8.80;99.90
52275;DHT22;38228;50.940;4.024;2023-04-25T01:52:30;8.70;99.90
52275;DHT22;38228;50.940;4.024;2023-04-25T01:54:57;8.50;99.90
52275;DHT22;38228;50.940;4.024;2023-04-25T01:57:24;8.50;99.90
52275;DHT22;38228;50.940;4.024;2023-04-25T01:59:50;8.50;99.90
52275;DHT22;38228;50.940;4.024;2023-04-25T02:02:17;8.60;99.90
52275;DHT22;38228;50.940;4.024;2023-04-25T02:04:43;8.50;99.90
52275;DHT22;38228;50.940;4.024;2023-04-25T02:07:08;8.40;99.90
52275;DHT22;38228;50.940;4.024;2023-04-25T02:09:34;8.40;99.90
52275;DHT22;38228;50.940;4.024;2023-04-25T02:12:01;8.20;99.90
52275;DHT22;38228;50.940;4.024;2023-04-25T02:14:27;8.40;99.90
52275;DHT22;38228;50.940;4.024;2023-04-25T02:16:54;8.40;99.90
52275;DHT22;38228;50.940;4.024;2023-04-25T02:19:20;8.20;99.90
52275;DHT22;38228;50.940;4.024;2023-04-25T02:21:45;8.20;99.90
52275;DHT22;38228;50.940;4.024;2023-04-25T02:24:11;8.50;99.90
52275;DHT22;38228;50.940;4.024;2023-04-25T02:26:37;8.50;99.90
52275;DHT22;38228;50.940;4.024;2023-04-25T02:29:03;8.60;99.90
52275;DHT22;38228;50.940;4.024;2023-04-25T02:31:29;8.60;99.90
52275;DHT22;38228;50.940;4.024;2023-04-25T02:33:55;8.70;99.90
52275;DHT22;38228;50.940;4.024;2023-04-25T02:36:20;8.50;99.90
52275;DHT22;38228;50.940;4.024;2023-04-25T02:38:46;8.60;99.90
52275;DHT22;38228;50.940;4.024;2023-04-25T02:41:12;8.30;99.90
52275;DHT22;38228;50.940;4.024;2023-04-25T02:43:38;8.20;99.90
52275;DHT22;38228;50.940;4.024;2023-04-25T02:46:04;7.90;99.90
52275;DHT22;38228;50.940;4.024;2023-04-25T02:48:29;7.90;99.90
52275;DHT22;38228;50.940;4.024;2023-04-25T02:50:56;7.70;99.90
52275;DHT22;38228;50.940;4.024;2023-04-25T02:53:22;8.00;99.90
52275;DHT22;38228;50.940;4.024;2023-04-25T02:55:48;7.90;99.90
52275;DHT22;38228;50.940;4.024;2023-04-25T02:58:14;7.70;99.90
52275;DHT22;38228;50.940;4.024;2023-04-25T03:00:41;7.70;99.90
52275;DHT22;38228;50.940;4.024;2023-04-25T03:03:06;7.70;99.90
52275;DHT22;38228;50.940;4.024;2023-04-25T03:05:32;7.50;99.90
52275;DHT22;38228;50.940;4.024;2023-04-25T03:07:58;7.60;99.90
52275;DHT22;38228;50.940;4.024;2023-04-25T03:10:24;7.60;99.90
52275;DHT22;38228;50.940;4.024;2023-04-25T03:12:49;7.70;99.90
52275;DHT22;38228;50.940;4.024;2023-04-25T03:15:15;7.60;99.90
52275;DHT22;38228;50.940;4.024;2023-04-25T03:17:42;7.70;99.90
52275;DHT22;38228;50.940;4.024;2023-04-25T03:20:08;7.80;99.90
52275;DHT22;38228;50.940;4.024;2023-04-25T03:22:34;7.70;99.90
52275;DHT22;38228;50.940;4.024;2023-04-25T03:25:00;7.70;99.90
52275;DHT22;38228;50.940;4.024;2023-04-25T03:27:25;7.70;99.90
52275;DHT22;38228;50.940;4.024;2023-04-25T03:29:51;7.60;99.90
52275;DHT22;38228;50.940;4.024;2023-04-25T03:32:18;7.40;99.90
52275;DHT22;38228;50.940;4.024;2023-04-25T03:34:44;7.50;99.90
52275;DHT22;38228;50.940;4.024;2023-04-25T03:37:10;7.80;99.90
52275;DHT22;38228;50.940;4.024;2023-04-25T03:39:36;7.70;99.90
52275;DHT22;38228;50.940;4.024;2023-04-25T03:42:02;7.70;99.90
52275;DHT22;38228;50.940;4.024;2023-04-25T03:44:28;7.60;99.90
52275;DHT22;38228;50.940;4.024;2023-04-25T03:46:55;7.70;99.90
52275;DHT22;38228;50.940;4.024;2023-04-25T03:49:22;7.70;99.90
52275;DHT22;38228;50.940;4.024;2023-04-25T03:51:47;7.70;99.90
52275;DHT22;38228;50.940;4.024;2023-04-25T03:54:13;7.60;99.90
52275;DHT22;38228;50.940;4.024;2023-04-25T03:56:39;7.80;99.90
52275;DHT22;38228;50.940;4.024;2023-04-25T03:59:05;7.70;99.90
52275;DHT22;38228;50.940;4.024;2023-04-25T04:01:30;7.90;99.90
52275;DHT22;38228;50.940;4.024;2023-04-25T04:03:56;7.90;99.90
52275;DHT22;38228;50.940;4.024;2023-04-25T04:06:22;8.10;99.90
52275;DHT22;38228;50.940;4.024;2023-04-25T04:08:48;7.80;99.90
52275;DHT22;38228;50.940;4.024;2023-04-25T04:11:14;7.80;99.90
52275;DHT22;38228;50.940;4.024;2023-04-25T04:13:40;7.80;99.90
52275;DHT22;38228;50.940;4.024;2023-04-25T04:16:05;7.70;99.90
52275;DHT22;38228;50.940;4.024;2023-04-25T04:18:31;7.50;99.90
52275;DHT22;38228;50.940;4.024;2023-04-25T04:20:59;7.40;99.90
52275;DHT22;38228;50.940;4.024;2023-04-25T04:23:25;7.60;99.90
52275;DHT22;38228;50.940;4.024;2023-04-25T04:25:53;7.80;99.90
52275;DHT22;38228;50.940;4.024;2023-04-25T04:28:19;7.70;99.90
52275;DHT22;38228;50.940;4.024;2023-04-25T04:30:46;7.40;99.90
52275;DHT22;38228;50.940;4.024;2023-04-25T04:33:12;7.40;99.90
52275;DHT22;38228;50.940;4.024;2023-04-25T04:35:38;7.30;99.90
52275;DHT22;38228;50.940;4.024;2023-04-25T04:38:05;7.60;99.90
52275;DHT22;38228;50.940;4.024;2023-04-25T04:40:31;7.60;99.90
52275;DHT22;38228;50.940;4.024;2023-04-25T04:42:57;7.40;99.90
52275;DHT22;38228;50.940;4.024;2023-04-25T04:45:23;7.40;99.90
52275;DHT22;38228;50.940;4.024;2023-04-25T04:47:49;7.40;99.90
52275;DHT22;38228;50.940;4.024;2023-04-25T04:50:16;7.30;99.90
52275;DHT22;38228;50.940;4.024;2023-04-25T04:52:43;7.40;99.90
52275;DHT22;38228;50.940;4.024;2023-04-25T04:55:09;7.50;99.90
52275;DHT22;38228;50.940;4.024;2023-04-25T04:57:35;7.50;99.90
52275;DHT22;38228;50.940;4.024;2023-04-25T05:00:01;7.70;99.90
52275;DHT22;38228;50.940;4.024;2023-04-25T05:02:30;7.50;99.90
52275;DHT22;38228;50.940;4.024;2023-04-25T05:04:56;7.40;99.90
52275;DHT22;38228;50.940;4.024;2023-04-25T05:07:22;7.40;99.90
52275;DHT22;38228;50.940;4.024;2023-04-25T05:09:47;7.30;99.90
52275;DHT22;38228;50.940;4.024;2023-04-25T05:12:14;7.60;99.90
52275;DHT22;38228;50.940;4.024;2023-04-25T05:14:42;7.90;99.90
52275;DHT22;38228;50.940;4.024;2023-04-25T05:17:08;7.70;99.90
52275;DHT22;38228;50.940;4.024;2023-04-25T05:19:36;7.80;99.90
52275;DHT22;38228;50.940;4.024;2023-04-25T05:22:02;7.70;99.90
52275;DHT22;38228;50.940;4.024;2023-04-25T05:24:29;7.50;99.90
52275;DHT22;38228;50.940;4.024;2023-04-25T05:26:56;7.80;99.90
52275;DHT22;38228;50.940;4.024;2023-04-25T05:29:22;7.70;99.90
52275;DHT22;38228;50.940;4.024;2023-04-25T05:31:47;7.70;99.90
52275;DHT22;38228;50.940;4.024;2023-04-25T05:34:13;7.70;99.90
52275;DHT22;38228;50.940;4.024;2023-04-25T05:36:39;7.60;99.90
52275;DHT22;38228;50.940;4.024;2023-04-25T05:39:05;7.60;99.90
52275;DHT22;38228;50.940;4.024;2023-04-25T05:41:31;7.50;99.90
52275;DHT22;38228;50.940;4.024;2023-04-25T05:43:57;7.60;99.90
52275;DHT22;38228;50.940;4.024;2023-04-25T05:46:23;7.60;99.90
52275;DHT22;38228;50.940;4.024;2023-04-25T05:48:49;7.50;99.90
52275;DHT22;38228;50.940;4.024;2023-04-25T05:51:14;7.60;99.90
52275;DHT22;38228;50.940;4.024;2023-04-25T05:53:41;7.50;99.90
52275;DHT22;38228;50.940;4.024;2023-04-25T05:56:07;7.70;99.90
52275;DHT22;38228;50.940;4.024;2023-04-25T05:58:35;8.20;99.90
52275;DHT22;38228;50.940;4.024;2023-04-25T06:01:12;8.50;99.90
52275;DHT22;38228;50.940;4.024;2023-04-25T06:03:47;8.30;99.90
52275;DHT22;38228;50.940;4.024;2023-04-25T06:06:18;8.20;99.90
52275;DHT22;38228;50.940;4.024;2023-04-25T06:08:45;8.40;99.90
52275;DHT22;38228;50.940;4.024;2023-04-25T06:11:11;8.40;99.90
52275;DHT22;38228;50.940;4.024;2023-04-25T06:13:37;8.40;99.90
52275;DHT22;38228;50.940;4.024;2023-04-25T06:16:05;8.50;99.90
52275;DHT22;38228;50.940;4.024;2023-04-25T06:18:31;8.70;99.90
52275;DHT22;38228;50.940;4.024;2023-04-25T06:20:57;8.80;99.90
52275;DHT22;38228;50.940;4.024;2023-04-25T06:23:23;8.80;99.90
52275;DHT22;38228;50.940;4.024;2023-04-25T06:25:49;8.80;99.90
52275;DHT22;38228;50.940;4.024;2023-04-25T06:28:16;8.50;99.90
52275;DHT22;38228;50.940;4.024;2023-04-25T06:30:42;8.70;99.90
52275;DHT22;38228;50.940;4.024;2023-04-25T06:33:07;8.60;99.90
52275;DHT22;38228;50.940;4.024;2023-04-25T06:35:34;8.70;99.90
52275;DHT22;38228;50.940;4.024;2023-04-25T06:38:00;8.90;99.90
52275;DHT22;38228;50.940;4.024;2023-04-25T06:40:26;9.10;99.90
52275;DHT22;38228;50.940;4.024;2023-04-25T06:42:53;9.20;99.90
52275;DHT22;38228;50.940;4.024;2023-04-25T06:45:19;8.90;99.90
52275;DHT22;38228;50.940;4.024;2023-04-25T06:47:44;8.80;99.90
52275;DHT22;38228;50.940;4.024;2023-04-25T06:50:10;8.70;99.90
52275;DHT22;38228;50.940;4.024;2023-04-25T06:52:36;8.90;99.90
52275;DHT22;38228;50.940;4.024;2023-04-25T06:55:02;9.10;99.90
52275;DHT22;38228;50.940;4.024;2023-04-25T06:57:30;9.00;99.90
52275;DHT22;38228;50.940;4.024;2023-04-25T06:59:56;9.00;99.90
52275;DHT22;38228;50.940;4.024;2023-04-25T07:02:25;8.90;99.90
52275;DHT22;38228;50.940;4.024;2023-04-25T07:04:54;8.90;99.90
52275;DHT22;38228;50.940;4.024;2023-04-25T07:07:24;8.80;99.90
52275;DHT22;38228;50.940;4.024;2023-04-25T07:09:50;8.90;99.90
52275;DHT22;38228;50.940;4.024;2023-04-25T07:12:16;8.80;99.90
52275;DHT22;38228;50.940;4.024;2023-04-25T07:14:43;9.00;99.90
52275;DHT22;38228;50.940;4.024;2023-04-25T07:17:11;8.90;99.90
52275;DHT22;38228;50.940;4.024;2023-04-25T07:19:40;9.00;99.90
52275;DHT22;38228;50.940;4.024;2023-04-25T07:22:09;9.00;99.90
52275;DHT22;38228;50.940;4.024;2023-04-25T07:24:35;9.20;99.90
52275;DHT22;38228;50.940;4.024;2023-04-25T07:27:03;9.10;99.90
52275;DHT22;38228;50.940;4.024;2023-04-25T07:29:29;9.30;99.90
52275;DHT22;38228;50.940;4.024;2023-04-25T07:31:57;9.10;99.90
52275;DHT22;38228;50.940;4.024;2023-04-25T07:34:22;9.20;99.90
52275;DHT22;38228;50.940;4.024;2023-04-25T07:36:48;9.20;99.90
52275;DHT22;38228;50.940;4.024;2023-04-25T07:39:14;9.20;99.90
52275;DHT22;38228;50.940;4.024;2023-04-25T07:41:40;9.00;99.90
52275;DHT22;38228;50.940;4.024;2023-04-25T07:44:06;9.10;99.90
52275;DHT22;38228;50.940;4.024;2023-04-25T07:46:32;9.30;99.90
52275;DHT22;38228;50.940;4.024;2023-04-25T07:48:58;9.40;99.90
52275;DHT22;38228;50.940;4.024;2023-04-25T07:51:24;9.50;99.90
52275;DHT22;38228;50.940;4.024;2023-04-25T07:53:50;9.40;99.90
52275;DHT22;38228;50.940;4.024;2023-04-25T07:56:16;9.50;99.90
52275;DHT22;38228;50.940;4.024;2023-04-25T07:58:44;9.60;99.90
52275;DHT22;38228;50.940;4.024;2023-04-25T08:01:10;9.50;99.90
52275;DHT22;38228;50.940;4.024;2023-04-25T08:03:38;9.50;99.90
52275;DHT22;38228;50.940;4.024;2023-04-25T08:06:04;9.40;99.90
52275;DHT22;38228;50.940;4.024;2023-04-25T08:08:30;9.60;99.90
52275;DHT22;38228;50.940;4.024;2023-04-25T08:10:56;9.40;99.90
52275;DHT22;38228;50.940;4.024;2023-04-25T08:13:22;9.60;99.90
52275;DHT22;38228;50.940;4.024;2023-04-25T08:15:48;9.80;99.90
52275;DHT22;38228;50.940;4.024;2023-04-25T08:18:14;10.10;99.90
52275;DHT22;38228;50.940;4.024;2023-04-25T08:20:39;10.00;99.90
52275;DHT22;38228;50.940;4.024;2023-04-25T08:23:08;10.20;99.90
52275;DHT22;38228;50.940;4.024;2023-04-25T08:25:34;10.10;99.90
52275;DHT22;38228;50.940;4.024;2023-04-25T08:27:59;9.80;99.90
52275;DHT22;38228;50.940;4.024;2023-04-25T08:30:28;9.60;99.90
52275;DHT22;38228;50.940;4.024;2023-04-25T08:32:55;9.50;99.90
52275;DHT22;38228;50.940;4.024;2023-04-25T08:35:21;9.50;99.90
52275;DHT22;38228;50.940;4.024;2023-04-25T08:37:49;9.60;99.90
52275;DHT22;38228;50.940;4.024;2023-04-25T08:40:15;9.70;99.90
52275;DHT22;38228;50.940;4.024;2023-04-25T08:42:42;9.80;99.90
52275;DHT22;38228;50.940;4.024;2023-04-25T08:45:10;9.40;99.90
52275;DHT22;38228;50.940;4.024;2023-04-25T08:47:38;9.50;99.90
52275;DHT22;38228;50.940;4.024;2023-04-25T08:50:04;9.50;99.90
52275;DHT22;38228;50.940;4.024;2023-04-25T08:52:40;9.60;99.90
52275;DHT22;38228;50.940;4.024;2023-04-25T08:55:09;9.60;99.90
52275;DHT22;38228;50.940;4.024;2023-04-25T08:57:35;9.70;99.90
52275;DHT22;38228;50.940;4.024;2023-04-25T09:00:01;9.80;99.90
52275;DHT22;38228;50.940;4.024;2023-04-25T09:02:29;9.90;99.90
52275;DHT22;38228;50.940;4.024;2023-04-25T09:04:58;10.10;99.90
52275;DHT22;38228;50.940;4.024;2023-04-25T09:07:24;10.20;99.90
52275;DHT22;38228;50.940;4.024;2023-04-25T09:09:55;10.40;99.90
52275;DHT22;38228;50.940;4.024;2023-04-25T09:12:21;10.50;99.90
52275;DHT22;38228;50.940;4.024;2023-04-25T09:15:10;10.50;99.90
52275;DHT22;38228;50.940;4.024;2023-04-25T09:17:36;10.50;99.90
52275;DHT22;38228;50.940;4.024;2023-04-25T09:20:13;10.50;99.90
52275;DHT22;38228;50.940;4.024;2023-04-25T09:22:39;10.30;99.90
52275;DHT22;38228;50.940;4.024;2023-04-25T09:25:19;10.30;99.90
52275;DHT22;38228;50.940;4.024;2023-04-25T09:27:52;10.50;99.90
52275;DHT22;38228;50.940;4.024;2023-04-25T09:30:59;10.70;99.90
52275;DHT22;38228;50.940;4.024;2023-04-25T09:33:34;10.80;99.90
52275;DHT22;38228;50.940;4.024;2023-04-25T09:36:10;10.80;99.90
52275;DHT22;38228;50.940;4.024;2023-04-25T09:38:43;11.40;99.90
52275;DHT22;38228;50.940;4.024;2023-04-25T09:41:10;11.80;99.90
52275;DHT22;38228;50.940;4.024;2023-04-25T09:43:39;12.00;99.90
52275;DHT22;38228;50.940;4.024;2023-04-25T09:46:09;12.10;99.90
52275;DHT22;38228;50.940;4.024;2023-04-25T09:48:36;11.90;99.90
52275;DHT22;38228;50.940;4.024;2023-04-25T09:51:15;12.20;99.90
52275;DHT22;38228;50.940;4.024;2023-04-25T09:53:42;11.80;99.90
52275;DHT22;38228;50.940;4.024;2023-04-25T09:56:10;11.90;99.90
52275;DHT22;38228;50.940;4.024;2023-04-25T09:58:38;11.70;99.90
52275;DHT22;38228;50.940;4.024;2023-04-25T10:01:07;11.70;99.90
52275;DHT22;38228;50.940;4.024;2023-04-25T10:03:37;11.30;99.90
52275;DHT22;38228;50.940;4.024;2023-04-25T10:06:12;11.20;99.90
52275;DHT22;38228;50.940;4.024;2023-04-25T10:08:39;10.70;99.90
52275;DHT22;38228;50.940;4.024;2023-04-25T10:11:08;9.90;99.90
52275;DHT22;38228;50.940;4.024;2023-04-25T10:13:35;9.40;99.90
52275;DHT22;38228;50.940;4.024;2023-04-25T10:16:03;9.10;99.90
52275;DHT22;38228;50.940;4.024;2023-04-25T10:18:30;9.10;99.90
52275;DHT22;38228;50.940;4.024;2023-04-25T10:21:01;9.10;99.90
52275;DHT22;38228;50.940;4.024;2023-04-25T10:23:29;9.20;99.90
52275;DHT22;38228;50.940;4.024;2023-04-25T10:25:55;9.10;99.90
52275;DHT22;38228;50.940;4.024;2023-04-25T10:28:25;9.20;99.90
52275;DHT22;38228;50.940;4.024;2023-04-25T10:31:19;9.00;99.90
52275;DHT22;38228;50.940;4.024;2023-04-25T10:33:48;9.00;99.90
52275;DHT22;38228;50.940;4.024;2023-04-25T10:36:18;9.00;99.90
52275;DHT22;38228;50.940;4.024;2023-04-25T10:38:47;9.10;99.90
52275;DHT22;38228;50.940;4.024;2023-04-25T10:41:14;9.20;99.90
52275;DHT22;38228;50.940;4.024;2023-04-25T10:43:50;9.30;99.90
52275;DHT22;38228;50.940;4.024;2023-04-25T10:46:25;9.50;99.90
52275;DHT22;38228;50.940;4.024;2023-04-25T10:48:59;9.70;99.90
52275;DHT22;38228;50.940;4.024;2023-04-25T10:51:29;9.90;99.90
52275;DHT22;38228;50.940;4.024;2023-04-25T10:54:06;10.10;99.90
52275;DHT22;38228;50.940;4.024;2023-04-25T10:56:40;10.40;99.90
52275;DHT22;38228;50.940;4.024;2023-04-25T10:59:16;10.70;99.90
52275;DHT22;38228;50.940;4.024;2023-04-25T11:01:44;10.60;99.90
52275;DHT22;38228;50.940;4.024;2023-04-25T11:04:43;10.50;99.90
52275;DHT22;38228;50.940;4.024;2023-04-25T11:10:27;10.50;99.90
52275;DHT22;38228;50.940;4.024;2023-04-25T11:12:53;10.40;99.90
52275;DHT22;38228;50.940;4.024;2023-04-25T11:15:19;10.40;99.90
52275;DHT22;38228;50.940;4.024;2023-04-25T11:17:45;10.70;99.90
52275;DHT22;38228;50.940;4.024;2023-04-25T11:20:12;10.70;99.90
52275;DHT22;38228;50.940;4.024;2023-04-25T11:22:39;10.70;99.90
52275;DHT22;38228;50.940;4.024;2023-04-25T11:25:08;10.80;99.90
52275;DHT22;38228;50.940;4.024;2023-04-25T11:27:37;10.70;99.90
52275;DHT22;38228;50.940;4.024;2023-04-25T11:30:32;10.40;99.90
52275;DHT22;38228;50.940;4.024;2023-04-25T11:33:00;10.60;99.90
52275;DHT22;38228;50.940;4.024;2023-04-25T11:35:25;10.70;99.90
52275;DHT22;38228;50.940;4.024;2023-04-25T11:37:52;11.00;99.90
52275;DHT22;38228;50.940;4.024;2023-04-25T11:40:18;11.50;99.90
52275;DHT22;38228;50.940;4.024;2023-04-25T11:45:31;11.80;99.90
52275;DHT22;38228;50.940;4.024;2023-04-25T11:47:56;12.00;99.90
52275;DHT22;38228;50.940;4.024;2023-04-25T11:50:22;12.10;99.90
52275;DHT22;38228;50.940;4.024;2023-04-25T11:52:48;12.50;99.90
52275;DHT22;38228;50.940;4.024;2023-04-25T11:55:16;12.30;99.90
52275;DHT22;38228;50.940;4.024;2023-04-25T11:57:44;12.20;99.90
52275;DHT22;38228;50.940;4.024;2023-04-25T12:00:15;12.30;99.90
52275;DHT22;38228;50.940;4.024;2023-04-25T12:02:43;12.20;99.90
52275;DHT22;38228;50.940;4.024;2023-04-25T12:05:13;12.30;99.90
52275;DHT22;38228;50.940;4.024;2023-04-25T12:07:40;12.40;99.90
52275;DHT22;38228;50.940;4.024;2023-04-25T12:10:14;12.60;99.90
52275;DHT22;38228;50.940;4.024;2023-04-25T12:12:45;12.80;99.90
52275;DHT22;38228;50.940;4.024;2023-04-25T12:15:15;12.60;99.90
52275;DHT22;38228;50.940;4.024;2023-04-25T12:17:48;12.40;99.90
52275;DHT22;38228;50.940;4.024;2023-04-25T12:20:24;12.50;99.90
52275;DHT22;38228;50.940;4.024;2023-04-25T12:22:51;12.50;99.90
52275;DHT22;38228;50.940;4.024;2023-04-25T12:25:39;12.40;99.90
52275;DHT22;38228;50.940;4.024;2023-04-25T12:31:00;12.00;99.90
52275;DHT22;38228;50.940;4.024;2023-04-25T12:33:35;12.50;99.90
52275;DHT22;38228;50.940;4.024;2023-04-25T12:36:02;12.90;99.90
52275;DHT22;38228;50.940;4.024;2023-04-25T12:38:37;12.70;99.90
52275;DHT22;38228;50.940;4.024;2023-04-25T12:41:03;12.20;99.90
52275;DHT22;38228;50.940;4.024;2023-04-25T12:43:29;11.90;99.90
52275;DHT22;38228;50.940;4.024;2023-04-25T12:45:56;11.50;99.90
52275;DHT22;38228;50.940;4.024;2023-04-25T12:48:22;11.30;99.90
52275;DHT22;38228;50.940;4.024;2023-04-25T12:50:49;11.40;99.90
52275;DHT22;38228;50.940;4.024;2023-04-25T12:53:20;11.60;99.90
52275;DHT22;38228;50.940;4.024;2023-04-25T12:55:46;12.10;99.90
52275;DHT22;38228;50.940;4.024;2023-04-25T12:58:16;12.40;99.90
52275;DHT22;38228;50.940;4.024;2023-04-25T13:00:43;12.70;99.90
52275;DHT22;38228;50.940;4.024;2023-04-25T13:03:09;12.80;99.90
52275;DHT22;38228;50.940;4.024;2023-04-25T13:05:36;12.80;99.90
52275;DHT22;38228;50.940;4.024;2023-04-25T13:08:02;12.90;99.90
52275;DHT22;38228;50.940;4.024;2023-04-25T13:10:29;13.00;99.90
52275;DHT22;38228;50.940;4.024;2023-04-25T13:12:55;13.20;99.90
52275;DHT22;38228;50.940;4.024;2023-04-25T13:15:21;13.30;99.90
52275;DHT22;38228;50.940;4.024;2023-04-25T13:17:47;13.40;99.90
52275;DHT22;38228;50.940;4.024;2023-04-25T13:20:13;13.10;99.90
52275;DHT22;38228;50.940;4.024;2023-04-25T13:22:42;12.90;99.90
52275;DHT22;38228;50.940;4.024;2023-04-25T13:25:11;12.70;99.90
52275;DHT22;38228;50.940;4.024;2023-04-25T13:27:37;12.50;99.90
52275;DHT22;38228;50.940;4.024;2023-04-25T13:30:05;13.00;99.90
52275;DHT22;38228;50.940;4.024;2023-04-25T13:32:36;13.50;99.90
52275;DHT22;38228;50.940;4.024;2023-04-25T13:35:27;13.50;99.90
52275;DHT22;38228;50.940;4.024;2023-04-25T13:37:52;13.30;99.90
52275;DHT22;38228;50.940;4.024;2023-04-25T13:40:18;13.30;99.90
52275;DHT22;38228;50.940;4.024;2023-04-25T13:42:44;13.70;99.90
52275;DHT22;38228;50.940;4.024;2023-04-25T13:45:11;14.00;99.90
52275;DHT22;38228;50.940;4.024;2023-04-25T13:47:36;14.10;99.90
52275;DHT22;38228;50.940;4.024;2023-04-25T13:50:03;14.40;99.90
52275;DHT22;38228;50.940;4.024;2023-04-25T13:52:29;14.50;99.90
52275;DHT22;38228;50.940;4.024;2023-04-25T13:54:55;14.80;99.90
52275;DHT22;38228;50.940;4.024;2023-04-25T13:57:21;14.50;99.90
52275;DHT22;38228;50.940;4.024;2023-04-25T13:59:46;14.20;99.90
52275;DHT22;38228;50.940;4.024;2023-04-25T14:02:13;13.50;99.90
52275;DHT22;38228;50.940;4.024;2023-04-25T14:04:38;13.10;99.90
52275;DHT22;38228;50.940;4.024;2023-04-25T14:07:04;13.00;99.90
52275;DHT22;38228;50.940;4.024;2023-04-25T14:09:30;13.10;99.90
52275;DHT22;38228;50.940;4.024;2023-04-25T14:11:56;13.60;99.90
52275;DHT22;38228;50.940;4.024;2023-04-25T14:14:22;14.10;99.90
52275;DHT22;38228;50.940;4.024;2023-04-25T14:16:49;14.40;99.90
52275;DHT22;38228;50.940;4.024;2023-04-25T14:19:16;14.40;99.90
52275;DHT22;38228;50.940;4.024;2023-04-25T14:21:42;14.80;99.90
52275;DHT22;38228;50.940;4.024;2023-04-25T14:24:09;15.40;99.90
52275;DHT22;38228;50.940;4.024;2023-04-25T14:26:36;15.40;99.80
52275;DHT22;38228;50.940;4.024;2023-04-25T14:29:06;15.40;99.00
52275;DHT22;38228;50.940;4.024;2023-04-25T14:31:37;15.40;99.10
52275;DHT22;38228;50.940;4.024;2023-04-25T14:34:05;15.40;99.80
52275;DHT22;38228;50.940;4.024;2023-04-25T14:36:31;15.20;99.80
52275;DHT22;38228;50.940;4.024;2023-04-25T14:38:57;15.20;99.90
52275;DHT22;38228;50.940;4.024;2023-04-25T14:41:24;15.30;99.70
52275;DHT22;38228;50.940;4.024;2023-04-25T14:43:50;15.30;98.40
52275;DHT22;38228;50.940;4.024;2023-04-25T14:46:16;15.30;98.30
52275;DHT22;38228;50.940;4.024;2023-04-25T14:48:42;15.30;97.50
52275;DHT22;38228;50.940;4.024;2023-04-25T14:51:08;14.90;97.50
52275;DHT22;38228;50.940;4.024;2023-04-25T14:53:34;14.20;99.40
52275;DHT22;38228;50.940;4.024;2023-04-25T14:55:59;13.70;99.90
52275;DHT22;38228;50.940;4.024;2023-04-25T14:58:25;13.20;99.90
52275;DHT22;38228;50.940;4.024;2023-04-25T15:00:51;12.80;99.90
52275;DHT22;38228;50.940;4.024;2023-04-25T15:03:17;12.50;99.90
52275;DHT22;38228;50.940;4.024;2023-04-25T15:05:43;12.30;99.90
52275;DHT22;38228;50.940;4.024;2023-04-25T15:08:09;12.20;99.90
52275;DHT22;38228;50.940;4.024;2023-04-25T15:10:38;12.40;99.90
52275;DHT22;38228;50.940;4.024;2023-04-25T15:13:04;12.10;99.90
52275;DHT22;38228;50.940;4.024;2023-04-25T15:15:30;11.80;99.90
52275;DHT22;38228;50.940;4.024;2023-04-25T15:17:56;11.80;99.90
52275;DHT22;38228;50.940;4.024;2023-04-25T15:20:22;12.00;99.90
52275;DHT22;38228;50.940;4.024;2023-04-25T15:22:48;12.20;99.90
52275;DHT22;38228;50.940;4.024;2023-04-25T15:25:15;12.20;99.90
52275;DHT22;38228;50.940;4.024;2023-04-25T15:27:44;12.00;99.90
52275;DHT22;38228;50.940;4.024;2023-04-25T15:30:12;12.00;99.90
52275;DHT22;38228;50.940;4.024;2023-04-25T15:32:43;12.50;99.90
52275;DHT22;38228;50.940;4.024;2023-04-25T15:35:09;13.20;99.90
52275;DHT22;38228;50.940;4.024;2023-04-25T15:37:35;14.10;99.00
52275;DHT22;38228;50.940;4.024;2023-04-25T15:40:10;14.50;98.00
52275;DHT22;38228;50.940;4.024;2023-04-25T15:42:38;14.00;98.50
52275;DHT22;38228;50.940;4.024;2023-04-25T15:45:06;13.80;98.60
52275;DHT22;38228;50.940;4.024;2023-04-25T15:47:33;13.30;99.30
52275;DHT22;38228;50.940;4.024;2023-04-25T15:50:00;13.10;99.30
52275;DHT22;38228;50.940;4.024;2023-04-25T15:52:26;12.80;99.80